Terminal Aerodrome Forecast
Issued by NWS Cleveland, OH

Home | Current Version | Previous Version | Graphics & Text | Print | Product List | Glossary On
Versions: 1 2 3 4 5 6 7 8 9 10 11 12 13 14 15
959
FTUS41 KCLE 062335
TAFMFD
TAF
KMFD 062335Z 0700/0724 25008KT 2SM BR OVC004
     FM070100 27012G20KT 6SM BR OVC006
     FM070700 26010G18KT P6SM OVC015
     FM071300 23010KT P6SM OVC030
     FM071700 22008KT P6SM BKN100=

USA.gov is the U.S. government's official web portal to all federal, state and local government web resources and services.